createdAt,value
2023-02-18T00:00:23.093Z,25.80
2023-02-18T00:02:54.307Z,27.13
2023-02-18T00:05:25.791Z,27.56
2023-02-18T00:07:56.684Z,28.05
2023-02-18T00:10:27.511Z,27.36
2023-02-18T00:12:58.639Z,28.83
2023-02-18T00:15:30.121Z,29.18
2023-02-18T00:18:01.337Z,27.63
2023-02-18T00:20:32.363Z,27.19
2023-02-18T00:23:03.337Z,27.63
2023-02-18T00:25:34.031Z,29.18
2023-02-18T00:28:05.128Z,27.38
2023-02-18T00:30:36.260Z,26.91
2023-02-18T00:33:07.400Z,28.84
2023-02-18T00:35:38.929Z,27.28
2023-02-18T00:38:09.475Z,26.86
2023-02-18T00:40:42.054Z,27.20
2023-02-18T00:43:13.323Z,26.19
2023-02-18T00:45:45.270Z,26.62
2023-02-18T00:48:16.736Z,26.77
2023-02-18T00:50:48.098Z,26.43
2023-02-18T00:53:19.825Z,28.06
2023-02-18T00:55:51.362Z,28.53
2023-02-18T00:58:22.823Z,29.65
2023-02-18T01:00:54.357Z,29.82
2023-02-18T01:03:25.639Z,30.42
2023-02-18T01:05:56.923Z,28.56
2023-02-18T01:08:29.180Z,29.33
2023-02-18T01:11:00.418Z,28.25
2023-02-18T01:13:33.000Z,27.27
2023-02-18T01:16:04.532Z,27.33
2023-02-18T01:18:35.669Z,26.10
2023-02-18T01:21:10.071Z,27.27
2023-02-18T01:23:42.967Z,27.44
2023-02-18T01:26:14.426Z,26.82
2023-02-18T01:28:45.911Z,27.05
2023-02-18T01:31:17.080Z,26.66
2023-02-18T01:33:48.248Z,27.11
2023-02-18T01:36:18.966Z,27.73
2023-02-18T01:38:50.316Z,27.69
2023-02-18T01:41:21.529Z,28.48
2023-02-18T01:44:16.201Z,29.14
2023-02-18T01:46:50.554Z,29.07
2023-02-18T01:49:37.779Z,28.30
2023-02-18T01:52:17.254Z,29.08
2023-02-18T01:54:59.400Z,29.77
2023-02-18T01:57:36.961Z,29.43
2023-02-18T02:00:15.322Z,29.64
2023-02-18T02:02:50.564Z,29.64
2023-02-18T02:05:23.653Z,30.05
2023-02-18T02:07:55.743Z,28.87
2023-02-18T02:10:27.212Z,28.03
2023-02-18T02:13:33.471Z,29.06
2023-02-18T02:17:01.657Z,29.75
2023-02-18T02:19:50.853Z,29.78
2023-02-18T02:22:41.950Z,29.12
2023-02-18T02:25:19.307Z,29.17
2023-02-18T02:28:12.086Z,29.82
2023-02-18T02:30:47.412Z,29.12
2023-02-18T02:33:26.268Z,28.52
2023-02-18T02:36:14.767Z,29.21
2023-02-18T02:39:11.800Z,28.55
2023-02-18T02:42:06.142Z,28.19
2023-02-18T02:44:52.195Z,29.36
2023-02-18T02:47:47.948Z,30.17
2023-02-18T02:50:34.375Z,29.66
2023-02-18T02:53:11.750Z,29.53
2023-02-18T02:55:43.862Z,29.99
2023-02-18T02:58:19.862Z,29.65
2023-02-18T03:01:29.259Z,29.98
2023-02-18T03:04:29.595Z,30.44
2023-02-18T03:07:26.609Z,30.30
2023-02-18T03:10:24.942Z,30.23
2023-02-18T03:13:14.457Z,30.48
2023-02-18T03:15:58.514Z,30.67
2023-02-18T03:18:52.446Z,31.10
2023-02-18T03:21:53.592Z,30.08
2023-02-18T03:24:37.274Z,30.18
2023-02-18T03:27:35.057Z,30.97
2023-02-18T03:30:14.362Z,30.13
2023-02-18T03:32:46.294Z,29.34
2023-02-18T03:35:19.835Z,29.67
2023-02-18T03:38:10.470Z,30.36
2023-02-18T03:40:41.764Z,29.75
2023-02-18T03:43:12.203Z,29.68
2023-02-18T03:45:43.309Z,29.67
2023-02-18T03:48:15.445Z,31.29
2023-02-18T03:50:47.863Z,30.39
2023-02-18T03:53:19.320Z,29.59
2023-02-18T03:55:50.824Z,30.36
2023-02-18T03:58:22.384Z,30.85
2023-02-18T04:00:53.807Z,29.90
2023-02-18T04:03:25.353Z,30.70
2023-02-18T04:05:55.673Z,30.19
2023-02-18T04:08:27.739Z,30.81
2023-02-18T04:10:59.237Z,30.86
2023-02-18T04:13:29.869Z,30.75
2023-02-18T04:16:01.169Z,30.70
2023-02-18T04:18:31.662Z,30.23
2023-02-18T04:21:03.030Z,30.54
2023-02-18T04:23:34.293Z,30.25
2023-02-18T04:26:05.274Z,30.36
2023-02-18T04:28:36.379Z,29.92
2023-02-18T04:31:07.861Z,29.82
2023-02-18T04:33:38.882Z,30.33
2023-02-18T04:36:10.892Z,29.31
2023-02-18T04:38:43.535Z,29.39
2023-02-18T04:41:14.470Z,29.85
2023-02-18T04:43:45.777Z,29.77
2023-02-18T04:46:16.279Z,28.69
2023-02-18T04:48:47.702Z,28.65
2023-02-18T04:51:18.838Z,28.16
2023-02-18T04:53:49.903Z,27.44
2023-02-18T04:56:21.634Z,27.86
2023-02-18T04:58:52.799Z,27.18
2023-02-18T05:01:24.023Z,26.95
2023-02-18T05:03:55.484Z,27.50
2023-02-18T05:06:26.689Z,27.01
2023-02-18T05:08:58.171Z,27.66
2023-02-18T05:11:29.090Z,27.08
2023-02-18T05:14:00.108Z,26.86
2023-02-18T05:16:31.245Z,26.33
2023-02-18T05:19:02.055Z,25.91
2023-02-18T05:21:33.255Z,25.54
2023-02-18T05:24:04.434Z,25.75
2023-02-18T05:26:35.653Z,25.29
2023-02-18T05:29:07.094Z,25.57
2023-02-18T05:31:37.508Z,25.24
2023-02-18T05:34:08.932Z,25.16
2023-02-18T05:36:40.460Z,25.49
2023-02-18T05:39:11.000Z,25.78
2023-02-18T05:41:41.929Z,25.42
2023-02-18T05:44:31.087Z,25.12
2023-02-18T05:47:11.543Z,25.02
2023-02-18T05:49:43.538Z,24.91
2023-02-18T05:52:14.817Z,24.62
2023-02-18T05:54:46.417Z,24.62
2023-02-18T05:57:18.207Z,24.93
2023-02-18T05:59:49.571Z,24.58
2023-02-18T06:02:20.654Z,24.63
2023-02-18T06:04:52.242Z,24.22
2023-02-18T06:07:23.469Z,24.22
2023-02-18T06:09:55.361Z,24.24
2023-02-18T06:12:25.679Z,24.11
2023-02-18T06:14:56.957Z,24.06
2023-02-18T06:17:28.198Z,23.92
2023-02-18T06:19:59.349Z,23.90
2023-02-18T06:22:30.642Z,23.80
2023-02-18T06:25:01.700Z,23.94
2023-02-18T06:27:33.714Z,23.96
2023-02-18T06:30:05.074Z,23.80
2023-02-18T06:32:36.577Z,23.52
2023-02-18T06:35:07.950Z,23.54
2023-02-18T06:37:39.073Z,23.29
2023-02-18T06:40:10.936Z,23.26
2023-02-18T06:42:43.029Z,23.43
2023-02-18T06:45:14.290Z,23.39
2023-02-18T06:47:45.063Z,23.42
2023-02-18T06:50:17.368Z,23.15
2023-02-18T06:52:48.615Z,23.32
2023-02-18T06:55:19.665Z,23.08
2023-02-18T06:57:51.103Z,23.29
2023-02-18T07:00:22.616Z,23.18
2023-02-18T07:02:53.924Z,23.11
2023-02-18T07:05:25.334Z,23.08
2023-02-18T07:07:56.607Z,23.01
2023-02-18T07:10:27.906Z,22.89
2023-02-18T07:12:58.483Z,23.05
2023-02-18T07:15:29.521Z,22.93
2023-02-18T07:18:00.519Z,22.74
2023-02-18T07:20:32.039Z,22.59
2023-02-18T07:23:02.993Z,22.84
2023-02-18T07:25:34.096Z,22.75
2023-02-18T07:28:05.629Z,22.74
2023-02-18T07:30:36.810Z,22.56
2023-02-18T07:33:08.989Z,22.50
2023-02-18T07:35:40.363Z,22.40
2023-02-18T07:38:11.566Z,22.52
2023-02-18T07:40:42.709Z,22.31
2023-02-18T07:43:13.621Z,22.30
2023-02-18T07:45:44.638Z,22.19
2023-02-18T07:48:15.850Z,22.33
2023-02-18T07:50:48.271Z,22.30
2023-02-18T07:53:19.932Z,22.26
2023-02-18T07:55:53.486Z,22.38
2023-02-18T07:58:27.924Z,22.17
2023-02-18T08:00:59.558Z,22.16
2023-02-18T08:03:33.224Z,22.29
2023-02-18T08:06:05.040Z,22.33
2023-02-18T08:08:37.342Z,22.25
2023-02-18T08:11:18.970Z,21.99
2023-02-18T08:13:51.444Z,21.88
2023-02-18T08:16:24.123Z,21.93
2023-02-18T08:18:56.413Z,21.79
2023-02-18T08:21:28.335Z,21.72
2023-02-18T08:23:59.605Z,21.68
2023-02-18T08:26:30.710Z,21.84
2023-02-18T08:29:02.032Z,21.66
2023-02-18T08:31:34.085Z,21.70
2023-02-18T08:34:05.681Z,21.65
2023-02-18T08:36:38.736Z,21.72
2023-02-18T08:39:09.859Z,21.57
2023-02-18T08:41:41.108Z,21.68
2023-02-18T08:44:12.535Z,21.65
2023-02-18T08:46:43.436Z,21.72
2023-02-18T08:49:14.527Z,21.56
2023-02-18T08:51:45.526Z,21.44
2023-02-18T08:54:16.434Z,21.31
2023-02-18T08:56:47.932Z,21.35
2023-02-18T08:59:19.372Z,21.28
2023-02-18T09:01:50.688Z,21.42
2023-02-18T09:04:22.677Z,21.43
2023-02-18T09:06:54.045Z,21.20
2023-02-18T09:09:25.361Z,21.20
2023-02-18T09:11:56.369Z,21.12
2023-02-18T09:14:28.198Z,21.11
2023-02-18T09:17:00.369Z,21.12
2023-02-18T09:19:31.714Z,21.14
2023-02-18T09:22:04.388Z,21.11
2023-02-18T09:24:40.564Z,20.79
2023-02-18T09:27:11.700Z,20.72
2023-02-18T09:29:44.366Z,20.78
2023-02-18T09:32:22.609Z,20.68
2023-02-18T09:35:00.676Z,20.48
2023-02-18T09:37:33.591Z,20.49
2023-02-18T09:40:04.674Z,20.53
2023-02-18T09:42:35.628Z,20.39
2023-02-18T09:45:09.984Z,20.28
2023-02-18T09:47:43.482Z,20.29
2023-02-18T09:50:24.683Z,20.28
2023-02-18T09:52:56.824Z,20.12
2023-02-18T09:55:30.338Z,20.05
2023-02-18T09:58:07.066Z,20.13
2023-02-18T10:00:46.657Z,20.26
2023-02-18T10:03:22.013Z,20.05
2023-02-18T10:06:34.977Z,19.95
2023-02-18T10:09:12.743Z,19.73
2023-02-18T10:11:46.016Z,19.96
2023-02-18T10:14:18.109Z,19.86
2023-02-18T10:16:50.718Z,19.60
2023-02-18T10:19:21.693Z,19.41
2023-02-18T10:21:54.074Z,19.33
2023-02-18T10:24:35.851Z,19.52
2023-02-18T10:27:09.909Z,19.62
2023-02-18T10:29:41.371Z,19.45
2023-02-18T10:32:27.673Z,19.47
2023-02-18T10:35:16.814Z,19.57
2023-02-18T10:37:59.694Z,19.43
2023-02-18T10:40:45.047Z,19.50
2023-02-18T10:43:19.027Z,19.35
2023-02-18T10:46:23.312Z,19.36
2023-02-18T10:49:24.515Z,19.27
2023-02-18T10:51:58.714Z,19.20
2023-02-18T10:54:52.716Z,19.36
2023-02-18T10:57:26.094Z,19.41
2023-02-18T11:00:14.148Z,19.27
2023-02-18T11:02:45.382Z,19.08
2023-02-18T11:05:28.193Z,19.04
2023-02-18T11:08:00.790Z,18.88
2023-02-18T11:10:37.618Z,18.74
2023-02-18T11:13:10.324Z,18.84
2023-02-18T11:16:03.436Z,18.70
2023-02-18T11:18:47.992Z,18.64
2023-02-18T11:21:38.446Z,18.74
2023-02-18T11:24:18.262Z,18.93
2023-02-18T11:26:49.417Z,18.77
2023-02-18T11:29:26.623Z,18.71
2023-02-18T11:31:58.641Z,18.63
2023-02-18T11:34:32.158Z,18.70
2023-02-18T11:37:18.234Z,18.73
2023-02-18T11:39:52.599Z,18.69
2023-02-18T11:42:26.843Z,18.43
2023-02-18T11:45:04.479Z,18.36
2023-02-18T11:47:38.816Z,18.24
2023-02-18T11:50:12.847Z,18.30
2023-02-18T11:52:46.296Z,18.35
2023-02-18T11:55:28.665Z,18.40
2023-02-18T11:58:03.865Z,18.31
2023-02-18T12:00:47.214Z,18.11
2023-02-18T12:03:49.597Z,18.09
2023-02-18T12:06:30.902Z,18.04
2023-02-18T12:09:08.836Z,18.03
2023-02-18T12:11:44.228Z,18.06
2023-02-18T12:14:23.357Z,18.09
2023-02-18T12:17:30.676Z,17.99
2023-02-18T12:20:29.704Z,17.91
2023-02-18T12:23:25.424Z,17.86
2023-02-18T12:26:24.802Z,17.87
2023-02-18T12:29:05.207Z,17.91
2023-02-18T12:31:39.360Z,17.69
2023-02-18T12:34:34.841Z,17.65
2023-02-18T12:37:17.791Z,17.72
2023-02-18T12:40:42.741Z,17.63
2023-02-18T12:43:29.184Z,17.73
2023-02-18T12:46:09.656Z,17.82
2023-02-18T12:49:10.693Z,17.82
2023-02-18T12:52:07.307Z,17.71
2023-02-18T12:54:44.861Z,17.64
2023-02-18T12:57:16.295Z,17.63
2023-02-18T12:59:56.379Z,17.70
2023-02-18T13:02:33.561Z,17.66
2023-02-18T13:05:32.759Z,17.69
2023-02-18T13:08:31.815Z,17.49
2023-02-18T13:11:21.979Z,17.58
2023-02-18T13:14:34.612Z,17.41
2023-02-18T13:17:07.714Z,17.34
2023-02-18T13:19:51.782Z,17.32
2023-02-18T13:22:25.563Z,17.37
2023-02-18T13:24:58.610Z,17.23
2023-02-18T13:27:41.487Z,17.25
2023-02-18T13:30:26.175Z,17.23
2023-02-18T13:32:57.424Z,17.30
2023-02-18T13:35:39.603Z,17.42
2023-02-18T13:38:29.291Z,17.42
2023-02-18T13:41:01.311Z,17.45
2023-02-18T13:43:37.025Z,17.21
2023-02-18T13:46:21.216Z,17.06
2023-02-18T13:48:58.856Z,17.16
2023-02-18T13:51:39.784Z,17.15
2023-02-18T13:54:18.805Z,17.12
2023-02-18T13:56:55.825Z,17.09
2023-02-18T13:59:27.614Z,17.02
2023-02-18T14:01:58.685Z,16.89
2023-02-18T14:04:46.118Z,16.97
2023-02-18T14:07:29.747Z,16.91
2023-02-18T14:10:03.030Z,16.95
2023-02-18T14:12:45.750Z,16.92
2023-02-18T14:15:22.603Z,17.02
2023-02-18T14:18:15.961Z,17.08
2023-02-18T14:20:52.866Z,17.05
2023-02-18T14:23:24.279Z,16.93
2023-02-18T14:26:12.173Z,16.86
2023-02-18T14:28:58.805Z,16.80
2023-02-18T14:31:36.091Z,16.82
2023-02-18T14:34:23.275Z,16.91
2023-02-18T14:37:21.578Z,17.05
2023-02-18T14:40:40.551Z,17.17
2023-02-18T14:43:29.911Z,17.26
2023-02-18T14:46:32.460Z,17.22
2023-02-18T14:49:21.285Z,17.15
2023-02-18T14:51:53.507Z,17.14
2023-02-18T14:54:25.951Z,17.18
2023-02-18T14:57:01.681Z,17.27
2023-02-18T14:59:43.305Z,17.13
2023-02-18T15:02:26.769Z,17.35
2023-02-18T15:05:00.807Z,17.48
2023-02-18T15:07:32.687Z,17.47
2023-02-18T15:10:03.730Z,17.50
2023-02-18T15:12:35.043Z,17.35
2023-02-18T15:15:07.767Z,17.26
2023-02-18T15:17:40.050Z,17.32
2023-02-18T15:20:13.885Z,17.36
2023-02-18T15:22:45.224Z,17.44
2023-02-18T15:25:16.803Z,17.62
2023-02-18T15:27:48.512Z,17.43
2023-02-18T15:30:25.046Z,17.45
2023-02-18T15:32:59.461Z,17.22
2023-02-18T15:35:33.243Z,17.39
2023-02-18T15:38:07.930Z,17.45
2023-02-18T15:40:41.919Z,17.33
2023-02-18T15:43:28.102Z,17.44
2023-02-18T15:46:00.647Z,17.47
2023-02-18T15:48:46.208Z,17.42
2023-02-18T15:51:23.573Z,17.57
2023-02-18T15:53:58.668Z,17.51
2023-02-18T15:56:32.984Z,17.71
2023-02-18T15:59:23.619Z,17.70
2023-02-18T16:01:58.032Z,17.69
2023-02-18T16:04:34.192Z,17.73
2023-02-18T16:07:18.975Z,17.78
2023-02-18T16:09:50.474Z,17.72
2023-02-18T16:12:31.153Z,17.68
2023-02-18T16:15:02.866Z,17.67
2023-02-18T16:17:34.808Z,17.71
2023-02-18T16:20:20.267Z,17.83
2023-02-18T16:22:56.367Z,17.76
2023-02-18T16:25:37.320Z,17.78
2023-02-18T16:28:17.664Z,17.70
2023-02-18T16:30:48.684Z,17.56
2023-02-18T16:33:19.695Z,17.62
2023-02-18T16:35:51.220Z,17.58
2023-02-18T16:38:24.587Z,17.56
2023-02-18T16:40:56.836Z,17.58
2023-02-18T16:43:34.130Z,17.53
2023-02-18T16:46:32.864Z,17.56
2023-02-18T16:49:04.032Z,17.51
2023-02-18T16:51:36.738Z,17.53
2023-02-18T16:54:08.034Z,17.58
2023-02-18T16:56:39.282Z,17.53
2023-02-18T16:59:10.682Z,17.31
2023-02-18T17:01:46.208Z,17.29
2023-02-18T17:04:19.667Z,17.48
2023-02-18T17:06:51.097Z,17.42
2023-02-18T17:09:24.690Z,17.48
2023-02-18T17:11:57.646Z,17.50
2023-02-18T17:14:28.760Z,17.48
2023-02-18T17:16:59.982Z,17.62
2023-02-18T17:19:31.031Z,17.60
2023-02-18T17:22:02.471Z,17.58
2023-02-18T17:24:33.385Z,17.42
2023-02-18T17:27:04.600Z,17.43
2023-02-18T17:29:35.887Z,17.38
2023-02-18T17:32:08.999Z,17.52
2023-02-18T17:34:42.491Z,17.56
2023-02-18T17:37:15.526Z,17.53
2023-02-18T17:39:46.446Z,17.65
2023-02-18T17:42:18.375Z,17.69
2023-02-18T17:44:49.459Z,17.65
2023-02-18T17:47:20.587Z,17.74
2023-02-18T17:49:51.846Z,17.78
2023-02-18T17:52:32.307Z,17.82
2023-02-18T17:55:03.473Z,17.90
2023-02-18T17:57:34.462Z,17.96
2023-02-18T18:00:06.731Z,18.01
2023-02-18T18:02:38.365Z,17.85
2023-02-18T18:05:20.117Z,17.93
2023-02-18T18:07:53.095Z,18.01
2023-02-18T18:10:30.025Z,17.96
2023-02-18T18:13:03.137Z,18.02
2023-02-18T18:15:38.181Z,18.06
2023-02-18T18:18:10.136Z,18.03
2023-02-18T18:20:42.841Z,17.97
2023-02-18T18:23:16.449Z,18.00
2023-02-18T18:25:53.374Z,18.11
2023-02-18T18:28:25.314Z,18.16
2023-02-18T18:30:58.641Z,18.18
2023-02-18T18:33:36.536Z,18.21
2023-02-18T18:36:08.489Z,18.22
2023-02-18T18:38:39.885Z,18.19
2023-02-18T18:41:18.985Z,18.30
2023-02-18T18:43:51.211Z,18.34
2023-02-18T18:46:22.488Z,18.39
2023-02-18T18:48:53.785Z,18.32
2023-02-18T18:51:31.005Z,18.35
2023-02-18T18:54:02.420Z,18.39
2023-02-18T18:56:33.431Z,18.36
2023-02-18T18:59:09.234Z,18.46
2023-02-18T19:01:40.467Z,18.46
2023-02-18T19:04:11.510Z,18.52
2023-02-18T19:06:43.504Z,18.43
2023-02-18T19:09:14.503Z,18.63
2023-02-18T19:11:45.972Z,18.83
2023-02-18T19:14:17.165Z,18.85
2023-02-18T19:16:48.735Z,18.90
2023-02-18T19:19:22.473Z,18.80
2023-02-18T19:21:54.897Z,18.97
2023-02-18T19:24:26.330Z,19.03
2023-02-18T19:26:57.701Z,19.27
2023-02-18T19:29:29.160Z,18.99
2023-02-18T19:32:00.573Z,19.23
2023-02-18T19:34:31.819Z,19.29
2023-02-18T19:37:03.603Z,19.43
2023-02-18T19:39:36.689Z,19.44
2023-02-18T19:42:07.894Z,19.57
2023-02-18T19:44:39.378Z,19.63
2023-02-18T19:47:10.694Z,19.47
2023-02-18T19:49:41.940Z,19.41
2023-02-18T19:52:13.311Z,19.71
2023-02-18T19:54:44.455Z,20.01
2023-02-18T19:57:16.089Z,20.00
2023-02-18T19:59:47.279Z,20.29
2023-02-18T20:02:24.012Z,20.73
2023-02-18T20:04:58.283Z,21.34
2023-02-18T20:07:30.193Z,21.03
2023-02-18T20:10:01.256Z,21.62
2023-02-18T20:12:33.836Z,21.46
2023-02-18T20:15:05.377Z,21.40
2023-02-18T20:17:36.840Z,21.40
2023-02-18T20:20:09.020Z,21.30
2023-02-18T20:22:40.352Z,21.48
2023-02-18T20:25:11.936Z,21.51
2023-02-18T20:27:59.439Z,21.53
2023-02-18T20:30:31.739Z,22.10
2023-02-18T20:33:02.801Z,21.54
2023-02-18T20:35:34.594Z,21.75
2023-02-18T20:38:06.083Z,22.33
2023-02-18T20:40:37.488Z,23.32
2023-02-18T20:43:08.572Z,23.41
2023-02-18T20:45:39.692Z,23.40
2023-02-18T20:48:10.979Z,23.13
2023-02-18T20:50:42.372Z,23.14
2023-02-18T20:53:13.428Z,22.79
2023-02-18T20:55:48.186Z,22.40
2023-02-18T20:58:19.166Z,22.57
2023-02-18T21:01:23.592Z,22.26
2023-02-18T21:03:54.804Z,22.23
2023-02-18T21:06:28.901Z,22.19
2023-02-18T21:09:00.644Z,21.79
2023-02-18T21:11:31.690Z,22.13
2023-02-18T21:14:03.083Z,22.58
2023-02-18T21:16:42.936Z,22.68
2023-02-18T21:19:16.943Z,22.70
2023-02-18T21:21:49.173Z,22.98
2023-02-18T21:24:20.165Z,23.18
2023-02-18T21:26:51.640Z,23.14
2023-02-18T21:29:22.891Z,24.23
2023-02-18T21:31:54.174Z,23.52
2023-02-18T21:34:27.435Z,24.92
2023-02-18T21:36:58.620Z,24.96
2023-02-18T21:39:29.632Z,24.57
2023-02-18T21:42:01.589Z,25.27
2023-02-18T21:44:41.714Z,25.08
2023-02-18T21:47:13.592Z,26.11
2023-02-18T21:49:44.754Z,26.49
2023-02-18T21:52:15.895Z,24.95
2023-02-18T21:54:47.292Z,24.36
2023-02-18T21:57:26.082Z,24.32
2023-02-18T21:59:57.249Z,24.04
2023-02-18T22:02:30.810Z,25.22
2023-02-18T22:05:09.544Z,25.45
2023-02-18T22:07:40.615Z,25.20
2023-02-18T22:10:12.500Z,25.36
2023-02-18T22:12:43.075Z,25.51
2023-02-18T22:15:14.432Z,25.57
2023-02-18T22:17:45.755Z,25.19
2023-02-18T22:20:17.031Z,25.09
2023-02-18T22:22:47.946Z,25.17
2023-02-18T22:25:19.057Z,24.72
2023-02-18T22:27:50.251Z,25.12
2023-02-18T22:30:21.585Z,25.31
2023-02-18T22:32:52.028Z,25.45
2023-02-18T22:35:23.474Z,25.36
2023-02-18T22:37:54.187Z,26.02
2023-02-18T22:40:25.305Z,25.92
2023-02-18T22:42:56.232Z,25.62
2023-02-18T22:45:27.471Z,26.27
2023-02-18T22:47:59.181Z,26.74
2023-02-18T22:50:30.784Z,27.22
2023-02-18T22:53:01.091Z,26.91
2023-02-18T22:55:32.245Z,27.08
2023-02-18T22:58:03.802Z,27.23
2023-02-18T23:00:35.258Z,27.01
2023-02-18T23:03:06.594Z,25.97
2023-02-18T23:05:37.977Z,25.71
2023-02-18T23:08:09.070Z,25.08
2023-02-18T23:10:40.955Z,25.66
2023-02-18T23:13:11.996Z,26.77
2023-02-18T23:15:43.044Z,27.09
2023-02-18T23:18:13.999Z,26.62
2023-02-18T23:21:03.150Z,26.28
2023-02-18T23:23:34.048Z,26.60
2023-02-18T23:26:05.139Z,26.92
2023-02-18T23:28:49.025Z,27.21
2023-02-18T23:31:28.386Z,28.20
2023-02-18T23:34:01.959Z,29.13
2023-02-18T23:36:34.942Z,28.07
2023-02-18T23:39:12.062Z,27.47
2023-02-18T23:41:43.142Z,26.78
2023-02-18T23:44:17.499Z,26.21
2023-02-18T23:46:48.765Z,27.75
2023-02-18T23:49:23.527Z,28.93
2023-02-18T23:51:56.839Z,29.13
2023-02-18T23:54:28.468Z,28.68
2023-02-18T23:56:59.835Z,28.48
2023-02-18T23:59:30.960Z,28.47
